createdAt,value
2018-05-06T00:01:27.782Z,83.10
2018-05-06T00:03:56.771Z,83.10
2018-05-06T00:06:24.995Z,83.00
2018-05-06T00:08:54.047Z,82.80
2018-05-06T00:11:22.270Z,83.70
2018-05-06T00:13:50.495Z,83.90
2018-05-06T00:16:18.765Z,84.20
2018-05-06T00:18:46.990Z,84.60
2018-05-06T00:21:15.219Z,84.50
2018-05-06T00:26:12.947Z,84.50
2018-05-06T00:28:41.175Z,84.60
2018-05-06T00:31:09.449Z,84.60
2018-05-06T00:33:37.749Z,84.80
2018-05-06T00:36:07.017Z,84.80
2018-05-06T00:38:35.291Z,84.80
2018-05-06T00:41:04.274Z,86.30
2018-05-06T00:43:32.501Z,86.70
2018-05-06T00:46:01.547Z,87.80
2018-05-06T00:48:29.775Z,86.90
2018-05-06T00:50:57.990Z,87.40
2018-05-06T00:53:27.234Z,85.80
2018-05-06T00:55:56.966Z,87.60
2018-05-06T00:58:26.698Z,87.50
2018-05-06T01:00:54.963Z,87.50
2018-05-06T01:03:23.190Z,88.10
2018-05-06T01:05:52.932Z,87.40
2018-05-06T01:08:21.196Z,88.30
2018-05-06T01:10:49.422Z,88.00
2018-05-06T01:13:17.646Z,88.90
2018-05-06T01:15:45.916Z,89.40
2018-05-06T01:18:14.903Z,89.70
2018-05-06T01:20:43.122Z,89.90
2018-05-06T01:23:11.402Z,90.00
2018-05-06T01:25:39.623Z,89.70
2018-05-06T01:28:07.857Z,90.20
2018-05-06T01:30:36.127Z,90.50
2018-05-06T01:33:04.355Z,90.70
2018-05-06T01:38:02.054Z,90.80
2018-05-06T01:40:30.283Z,90.90
2018-05-06T01:42:58.511Z,91.10
2018-05-06T01:45:26.778Z,91.30
2018-05-06T01:47:55.011Z,91.20
2018-05-06T01:50:23.238Z,91.40
2018-05-06T01:52:51.513Z,91.60
2018-05-06T01:55:19.786Z,91.60
2018-05-06T01:57:48.770Z,92.40
2018-05-06T02:00:17.047Z,92.60
2018-05-06T02:02:46.043Z,92.60
2018-05-06T02:05:14.278Z,92.50
2018-05-06T02:07:43.302Z,92.60
2018-05-06T02:10:11.530Z,93.00
2018-05-06T02:12:39.742Z,93.40
2018-05-06T02:15:08.015Z,93.30
2018-05-06T02:17:36.238Z,93.20
2018-05-06T02:22:34.707Z,93.70
2018-05-06T02:25:02.923Z,93.90
2018-05-06T02:27:31.151Z,94.00
2018-05-06T02:29:59.423Z,94.20
2018-05-06T02:32:28.415Z,94.40
2018-05-06T02:34:56.638Z,94.70
2018-05-06T02:37:24.915Z,94.90
2018-05-06T02:42:22.590Z,95.60
2018-05-06T02:44:51.999Z,95.40
2018-05-06T02:47:21.724Z,95.90
2018-05-06T02:49:49.951Z,95.80
2018-05-06T02:52:19.792Z,95.80
2018-05-06T02:54:49.525Z,95.70
2018-05-06T02:57:17.751Z,95.90
2018-05-06T02:59:46.023Z,96.20
2018-05-06T03:02:15.023Z,96.60
2018-05-06T03:04:44.754Z,96.70
2018-05-06T03:07:13.027Z,96.90
2018-05-06T03:09:41.254Z,97.20
2018-05-06T03:12:10.238Z,97.30
2018-05-06T03:14:38.523Z,97.60
2018-05-06T03:17:06.745Z,98.20
2018-05-06T03:19:34.985Z,98.00
2018-05-06T03:22:03.652Z,97.80
2018-05-06T03:24:31.885Z,98.00
2018-05-06T03:27:00.874Z,98.20
2018-05-06T03:29:29.354Z,98.50
2018-05-06T03:31:59.088Z,99.10
2018-05-06T03:36:57.979Z,99.40
2018-05-06T03:39:27.471Z,99.30
2018-05-06T03:44:25.578Z,99.30
2018-05-06T03:46:54.573Z,99.80
2018-05-06T03:49:23.931Z,99.90
2018-05-06T03:51:52.214Z,99.90
2018-05-06T03:54:20.438Z,99.90
2018-05-06T03:57:01.362Z,99.90
2018-05-06T03:59:42.278Z,99.90
2018-05-06T04:05:16.500Z,99.90
2018-05-06T04:07:44.767Z,99.90
2018-05-06T04:10:12.994Z,99.90
2018-05-06T04:12:41.232Z,99.90
2018-05-06T04:15:09.538Z,99.90
2018-05-06T04:17:37.767Z,99.90
2018-05-06T04:20:05.994Z,99.90
2018-05-06T04:22:34.279Z,99.90
2018-05-06T04:25:02.507Z,99.90
2018-05-06T04:27:31.504Z,99.90
2018-05-06T04:30:00.548Z,99.90
2018-05-06T04:32:28.775Z,99.90
2018-05-06T04:34:57.004Z,99.90
2018-05-06T04:37:26.042Z,99.90
2018-05-06T04:39:54.275Z,99.90
2018-05-06T04:42:22.499Z,99.90
2018-05-06T04:44:50.768Z,99.90
2018-05-06T04:47:19.003Z,99.90
2018-05-06T04:49:47.235Z,99.90
2018-05-06T04:52:15.503Z,99.90
2018-05-06T04:54:43.727Z,99.90
2018-05-06T04:57:11.951Z,99.90
2018-05-06T04:59:40.211Z,99.90
2018-05-06T05:02:09.202Z,99.90
2018-05-06T05:04:37.426Z,99.90
2018-05-06T05:07:05.699Z,99.90
2018-05-06T05:09:33.940Z,99.90
2018-05-06T05:12:03.671Z,99.90
2018-05-06T05:14:32.703Z,99.90
2018-05-06T05:17:01.703Z,99.90
2018-05-06T05:19:29.935Z,99.90
2018-05-06T05:21:58.195Z,99.90
2018-05-06T05:24:26.424Z,99.90
2018-05-06T05:26:55.419Z,99.90
2018-05-06T05:29:25.207Z,99.90
2018-05-06T05:31:53.440Z,99.90
2018-05-06T05:34:21.722Z,99.90
2018-05-06T05:39:19.406Z,99.90
2018-05-06T05:41:49.142Z,99.90
2018-05-06T05:44:18.248Z,99.90
2018-05-06T05:46:47.991Z,99.90
2018-05-06T05:49:17.354Z,99.90
2018-05-06T05:51:45.619Z,99.90
2018-05-06T05:54:14.651Z,99.90
2018-05-06T05:56:43.643Z,99.90
2018-05-06T05:59:11.866Z,99.90
2018-05-06T06:04:09.998Z,99.90
2018-05-06T06:06:38.996Z,99.90
2018-05-06T06:09:08.783Z,99.90
2018-05-06T06:11:38.514Z,99.90
2018-05-06T06:14:06.738Z,99.90
2018-05-06T06:16:35.207Z,99.90
2018-05-06T06:19:04.571Z,99.90
2018-05-06T06:21:32.803Z,99.90
2018-05-06T06:26:31.286Z,99.90
2018-05-06T06:29:01.063Z,99.90
2018-05-06T06:31:29.290Z,99.90
2018-05-06T06:33:57.514Z,99.90
2018-05-06T06:36:26.551Z,99.90
2018-05-06T06:38:55.545Z,99.90
2018-05-06T06:41:23.775Z,99.90
2018-05-06T06:43:52.055Z,99.90
2018-05-06T06:46:21.798Z,99.60
2018-05-06T06:48:50.795Z,99.10
2018-05-06T06:51:19.058Z,97.50
2018-05-06T06:53:48.052Z,97.50
2018-05-06T06:56:17.047Z,96.90
2018-05-06T06:58:46.450Z,95.90
2018-05-06T07:01:14.684Z,94.70
2018-05-06T07:03:43.677Z,94.60
2018-05-06T07:06:13.951Z,94.10
2018-05-06T07:08:42.570Z,91.80
2018-05-06T07:11:10.798Z,91.00
2018-05-06T07:13:39.492Z,90.90
2018-05-06T07:16:07.719Z,88.40
2018-05-06T07:18:35.947Z,91.50
2018-05-06T07:21:04.230Z,91.30
2018-05-06T07:23:32.459Z,90.80
2018-05-06T07:26:00.687Z,87.50
2018-05-06T07:28:28.959Z,88.70
2018-05-06T07:30:57.584Z,85.60
2018-05-06T07:33:26.567Z,86.70
2018-05-06T07:35:54.948Z,85.00
2018-05-06T07:38:23.090Z,82.10
2018-05-06T07:40:51.363Z,79.50
2018-05-06T07:43:20.355Z,83.00
2018-05-06T07:45:48.584Z,83.20
2018-05-06T07:48:17.141Z,84.50
2018-05-06T07:53:14.827Z,82.20
2018-05-06T07:55:43.087Z,80.10
2018-05-06T07:58:11.306Z,77.50
2018-05-06T08:00:39.892Z,79.10
2018-05-06T08:03:08.167Z,81.30
2018-05-06T08:05:37.531Z,81.30
2018-05-06T08:08:06.519Z,80.10
2018-05-06T08:10:35.563Z,79.70
2018-05-06T08:13:03.798Z,78.80
2018-05-06T08:15:32.027Z,76.60
2018-05-06T08:18:00.294Z,78.70
2018-05-06T08:20:28.519Z,76.10
2018-05-06T08:22:56.747Z,74.60
2018-05-06T08:25:26.138Z,74.60
2018-05-06T08:27:54.362Z,76.20
2018-05-06T08:30:24.434Z,73.20
2018-05-06T08:32:52.661Z,73.60
2018-05-06T08:35:20.890Z,73.90
2018-05-06T08:37:49.150Z,73.10
2018-05-06T08:40:17.379Z,73.50
2018-05-06T08:42:49.462Z,72.40
2018-05-06T08:47:47.144Z,73.20
2018-05-06T08:50:16.175Z,73.80
2018-05-06T08:52:44.403Z,72.40
2018-05-06T08:55:13.432Z,72.90
2018-05-06T08:57:41.663Z,71.10
2018-05-06T09:00:09.886Z,69.50
2018-05-06T09:02:38.911Z,70.70
2018-05-06T09:07:36.619Z,72.90
2018-05-06T09:10:06.015Z,77.90
2018-05-06T09:12:34.234Z,75.20
2018-05-06T09:15:02.582Z,74.80
2018-05-06T09:17:30.809Z,74.80
2018-05-06T09:19:59.060Z,72.70
2018-05-06T09:22:28.083Z,64.20
2018-05-06T09:24:56.699Z,59.40
2018-05-06T09:27:25.699Z,53.80
2018-05-06T09:29:53.994Z,52.80
2018-05-06T09:32:23.774Z,49.20
2018-05-06T09:34:51.951Z,50.80
2018-05-06T09:37:20.976Z,50.30
2018-05-06T09:39:49.599Z,52.70
2018-05-06T09:42:17.828Z,51.40
2018-05-06T09:44:46.090Z,54.70
2018-05-06T09:49:44.534Z,55.20
2018-05-06T09:52:14.363Z,59.60
2018-05-06T09:57:12.435Z,58.40
2018-05-06T09:59:40.710Z,59.60
2018-05-06T10:02:10.442Z,59.10
2018-05-06T10:04:39.495Z,59.70
2018-05-06T10:07:07.730Z,56.10
2018-05-06T10:09:36.719Z,57.60
2018-05-06T10:12:05.163Z,58.40
2018-05-06T10:14:33.787Z,59.10
2018-05-06T10:17:02.016Z,56.40
2018-05-06T10:19:30.314Z,60.30
2018-05-06T10:21:59.302Z,57.00
2018-05-06T10:24:27.531Z,58.30
2018-05-06T10:26:56.578Z,58.30
2018-05-06T10:29:25.571Z,58.70
2018-05-06T10:31:53.799Z,58.80
2018-05-06T10:34:22.083Z,59.40
2018-05-06T10:36:50.698Z,57.80
2018-05-06T10:39:18.931Z,56.60
2018-05-06T10:44:16.739Z,56.00
2018-05-06T10:46:44.886Z,57.10
2018-05-06T10:49:13.613Z,57.50
2018-05-06T10:51:42.901Z,55.20
2018-05-06T10:54:11.191Z,49.80
2018-05-06T10:56:39.419Z,49.50
2018-05-06T10:59:07.646Z,48.40
2018-05-06T11:01:37.427Z,53.00
2018-05-06T11:04:05.675Z,51.80
2018-05-06T11:06:33.879Z,54.40
2018-05-06T11:09:03.008Z,48.80
2018-05-06T11:11:31.998Z,52.80
2018-05-06T11:14:00.226Z,50.90
2018-05-06T11:16:30.028Z,52.00
2018-05-06T11:18:58.651Z,53.80
2018-05-06T11:21:26.879Z,52.20
2018-05-06T11:23:56.295Z,49.90
2018-05-06T11:26:25.290Z,52.60
2018-05-06T11:28:55.271Z,51.40
2018-05-06T11:31:24.679Z,52.40
2018-05-06T11:33:53.299Z,52.30
2018-05-06T11:36:22.662Z,51.20
2018-05-06T11:38:51.756Z,47.10
2018-05-06T11:41:21.119Z,49.60
2018-05-06T11:43:49.343Z,49.30
2018-05-06T11:46:18.056Z,48.10
2018-05-06T11:48:46.294Z,47.70
2018-05-06T11:53:44.002Z,48.90
2018-05-06T11:56:12.247Z,48.60
2018-05-06T11:58:40.455Z,48.80
2018-05-06T12:01:09.902Z,48.20
2018-05-06T12:03:38.127Z,49.60
2018-05-06T12:06:06.352Z,49.60
2018-05-06T12:08:36.163Z,53.10
2018-05-06T12:13:34.599Z,47.70
2018-05-06T12:16:04.710Z,47.80
2018-05-06T12:18:33.562Z,51.40
2018-05-06T12:21:03.294Z,46.60
2018-05-06T12:23:34.963Z,50.40
2018-05-06T12:26:03.163Z,47.60
2018-05-06T12:28:31.435Z,52.40
2018-05-06T12:31:01.217Z,50.80
2018-05-06T12:33:29.491Z,49.40
2018-05-06T12:35:57.719Z,52.90
2018-05-06T12:38:26.271Z,50.20
2018-05-06T12:43:23.991Z,50.00
2018-05-06T12:45:53.002Z,47.90
2018-05-06T12:48:21.991Z,49.90
2018-05-06T12:50:50.210Z,46.80
2018-05-06T13:00:48.669Z,49.40
2018-05-06T13:03:17.663Z,49.80
2018-05-06T13:05:47.395Z,49.20
2018-05-06T13:08:15.682Z,48.30
2018-05-06T13:10:43.907Z,47.80
2018-05-06T13:15:43.187Z,48.90
2018-05-06T13:18:12.175Z,49.80
2018-05-06T13:20:40.399Z,48.20
2018-05-06T13:23:10.463Z,49.30
2018-05-06T13:25:41.142Z,48.10
2018-05-06T13:28:09.759Z,49.30
2018-05-06T13:33:07.962Z,50.70
2018-05-06T13:35:36.955Z,51.10
2018-05-06T13:38:06.324Z,50.20
2018-05-06T13:40:35.371Z,52.20
2018-05-06T13:43:04.363Z,51.00
2018-05-06T13:45:33.362Z,53.10
2018-05-06T13:48:01.630Z,51.40
2018-05-06T13:50:31.355Z,51.20
2018-05-06T13:52:59.579Z,50.40
2018-05-06T13:55:27.871Z,50.40
2018-05-06T13:57:57.231Z,53.10
2018-05-06T14:00:25.547Z,49.40
2018-05-06T14:02:55.279Z,52.50
2018-05-06T14:05:24.270Z,52.80
2018-05-06T14:10:22.794Z,51.90
2018-05-06T14:12:51.787Z,51.90
2018-05-06T14:15:20.279Z,52.10
2018-05-06T14:17:50.015Z,55.50
2018-05-06T14:20:18.239Z,50.80
2018-05-06T14:25:17.264Z,55.40
2018-05-06T14:27:46.255Z,55.60
2018-05-06T14:30:15.311Z,56.80
2018-05-06T14:32:44.671Z,56.40
2018-05-06T14:35:12.899Z,56.10
2018-05-06T14:37:41.183Z,53.60
2018-05-06T14:40:09.410Z,56.60
2018-05-06T14:42:37.643Z,54.90
2018-05-06T14:47:47.367Z,54.10
2018-05-06T14:50:16.463Z,54.00
2018-05-06T14:52:46.195Z,54.30
2018-05-06T14:57:45.768Z,57.20
2018-05-06T15:00:13.998Z,55.70
2018-05-06T15:02:43.075Z,56.80
2018-05-06T15:05:12.062Z,55.30
2018-05-06T15:07:40.300Z,56.10
2018-05-06T15:10:08.602Z,56.70
2018-05-06T15:12:36.830Z,55.90
2018-05-06T15:15:06.570Z,57.80
2018-05-06T15:17:35.659Z,57.80
2018-05-06T15:20:05.396Z,58.40
2018-05-06T15:22:33.614Z,56.30
2018-05-06T15:25:01.871Z,56.60
2018-05-06T15:27:30.098Z,58.20
2018-05-06T15:29:58.379Z,55.70
2018-05-06T15:32:27.371Z,55.80
2018-05-06T15:34:55.597Z,55.60
2018-05-06T15:37:23.927Z,56.00
2018-05-06T15:39:52.168Z,58.00
2018-05-06T15:42:21.884Z,57.90
2018-05-06T15:44:51.107Z,59.10
2018-05-06T15:47:20.105Z,57.20
2018-05-06T15:49:48.331Z,55.60
2018-05-06T15:52:18.086Z,56.70
2018-05-06T15:54:46.391Z,56.40
2018-05-06T15:57:14.571Z,57.30
2018-05-06T15:59:43.606Z,58.00
2018-05-06T16:05:27.764Z,57.70
2018-05-06T16:07:57.486Z,56.90
2018-05-06T16:10:25.710Z,58.00
2018-05-06T16:12:54.066Z,56.40
2018-05-06T16:15:22.229Z,57.80
2018-05-06T16:17:50.447Z,58.00
2018-05-06T16:20:19.514Z,57.10
2018-05-06T16:22:47.754Z,57.60
2018-05-06T16:25:15.968Z,57.90
2018-05-06T16:27:45.759Z,58.70
2018-05-06T16:30:13.987Z,59.00
2018-05-06T16:32:42.211Z,57.90
2018-05-06T16:35:11.308Z,59.10
2018-05-06T16:37:40.299Z,58.30
2018-05-06T16:40:08.518Z,57.40
2018-05-06T16:42:36.786Z,57.90
2018-05-06T16:45:05.015Z,58.00
2018-05-06T16:52:33.714Z,59.30
2018-05-06T16:55:01.975Z,60.10
2018-05-06T17:00:10.126Z,59.80
2018-05-06T17:02:39.542Z,59.60
2018-05-06T17:05:07.763Z,59.70
2018-05-06T17:07:36.457Z,59.90
2018-05-06T17:10:04.678Z,60.60
2018-05-06T17:15:02.387Z,60.90
2018-05-06T17:17:31.007Z,60.80
2018-05-06T17:20:15.007Z,61.20
2018-05-06T17:22:43.225Z,61.20
2018-05-06T17:25:11.511Z,61.70
2018-05-06T17:27:39.742Z,61.40
2018-05-06T17:30:08.726Z,61.90
2018-05-06T17:32:37.011Z,61.90
2018-05-06T17:37:35.079Z,61.80
2018-05-06T17:40:03.363Z,62.10
2018-05-06T17:42:33.096Z,62.20
2018-05-06T17:45:01.324Z,62.20
2018-05-06T17:47:29.607Z,62.90
2018-05-06T17:49:57.896Z,63.80
2018-05-06T17:52:26.063Z,64.00
2018-05-06T17:54:54.793Z,64.40
2018-05-06T17:57:23.782Z,65.30
2018-05-06T17:59:52.002Z,63.70
2018-05-06T18:02:20.288Z,63.90
2018-05-06T18:04:48.512Z,64.20
2018-05-06T18:07:18.242Z,63.20
2018-05-06T18:09:47.278Z,64.30
2018-05-06T18:14:44.987Z,65.00
2018-05-06T18:17:13.255Z,64.70
2018-05-06T18:19:41.492Z,65.70
2018-05-06T18:22:09.703Z,66.60
2018-05-06T18:24:39.198Z,67.20
2018-05-06T18:27:08.491Z,67.00
2018-05-06T18:29:37.511Z,68.10
2018-05-06T18:32:05.766Z,68.90
2018-05-06T18:34:34.387Z,68.40
2018-05-06T18:37:03.791Z,66.50
2018-05-06T18:39:32.019Z,67.50
2018-05-06T18:42:01.748Z,68.00
2018-05-06T18:44:30.417Z,68.90
2018-05-06T18:46:58.838Z,67.80
2018-05-06T18:49:26.882Z,68.50
2018-05-06T18:51:55.155Z,69.10
2018-05-06T18:54:23.384Z,69.40
2018-05-06T18:59:21.167Z,69.60
2018-05-06T19:01:49.392Z,68.30
2018-05-06T19:04:18.795Z,69.40
2018-05-06T19:06:47.018Z,69.60
2018-05-06T19:09:16.006Z,69.50
2018-05-06T19:11:45.435Z,69.30
2018-05-06T19:14:13.660Z,69.50
2018-05-06T19:16:42.391Z,69.30
2018-05-06T19:19:12.127Z,69.60
2018-05-06T19:21:41.486Z,69.70
2018-05-06T19:24:10.250Z,68.80
2018-05-06T19:26:38.493Z,68.40
2018-05-06T19:31:37.323Z,68.70
2018-05-06T19:34:06.318Z,67.80
2018-05-06T19:36:34.551Z,68.70
2018-05-06T19:39:04.335Z,68.90
2018-05-06T19:41:32.563Z,69.00
2018-05-06T19:44:00.822Z,69.90
2018-05-06T19:46:29.110Z,69.70
2018-05-06T19:48:57.359Z,70.50
2018-05-06T19:51:25.615Z,70.20
2018-05-06T19:53:53.890Z,69.90
2018-05-06T19:58:51.647Z,69.80
2018-05-06T20:01:21.378Z,70.10
2018-05-06T20:03:49.604Z,70.10
2018-05-06T20:06:17.887Z,71.20
2018-05-06T20:08:46.116Z,71.10
2018-05-06T20:11:14.334Z,71.40
2018-05-06T20:13:42.623Z,71.30
2018-05-06T20:16:10.897Z,71.50
2018-05-06T20:18:40.207Z,71.80
2018-05-06T20:21:08.478Z,71.80
2018-05-06T20:23:37.470Z,72.90
2018-05-06T20:26:06.459Z,71.60
2018-05-06T20:28:34.750Z,71.50
2018-05-06T20:31:02.971Z,72.20
2018-05-06T20:33:31.199Z,72.90
2018-05-06T20:35:59.487Z,73.00
2018-05-06T20:38:27.752Z,73.10
2018-05-06T20:40:55.947Z,73.90
2018-05-06T20:43:24.214Z,74.70
2018-05-06T20:45:53.587Z,74.60
2018-05-06T20:48:21.843Z,75.00
2018-05-06T20:50:50.220Z,74.70
2018-05-06T20:53:18.432Z,75.10
2018-05-06T20:55:46.650Z,75.50
2018-05-06T20:58:16.414Z,75.60
2018-05-06T21:00:46.147Z,76.10
2018-05-06T21:03:14.370Z,76.80
2018-05-06T21:05:42.664Z,76.80
2018-05-06T21:08:10.895Z,77.30
2018-05-06T21:10:39.118Z,76.30
2018-05-06T21:13:07.423Z,77.30
2018-05-06T21:15:36.790Z,77.50
2018-05-06T21:20:36.047Z,77.30
2018-05-06T21:23:05.052Z,76.80
2018-05-06T21:25:33.267Z,77.50
2018-05-06T21:28:01.568Z,78.10
2018-05-06T21:30:31.290Z,77.20
2018-05-06T21:33:00.350Z,78.40
2018-05-06T21:35:28.697Z,78.70
2018-05-06T21:37:57.616Z,79.00
2018-05-06T21:40:25.845Z,79.20
2018-05-06T21:42:54.511Z,79.40
2018-05-06T21:45:22.760Z,78.90
2018-05-06T21:47:51.738Z,79.70
2018-05-06T21:50:20.475Z,78.20
2018-05-06T21:52:49.509Z,79.40
2018-05-06T21:55:18.683Z,77.70
2018-05-06T21:57:46.972Z,77.60
2018-05-06T22:00:15.202Z,79.30
2018-05-06T22:05:13.736Z,80.20
2018-05-06T22:10:11.410Z,78.40
2018-05-06T22:12:39.679Z,78.70
2018-05-06T22:15:07.908Z,78.90
2018-05-06T22:17:37.640Z,79.70
2018-05-06T22:20:06.756Z,80.20
2018-05-06T22:22:35.827Z,80.10
2018-05-06T22:25:03.970Z,79.40
2018-05-06T22:30:02.803Z,80.00
2018-05-06T22:32:31.018Z,79.00
2018-05-06T22:34:59.283Z,78.80
2018-05-06T22:37:27.506Z,78.80
2018-05-06T22:42:25.274Z,78.20
2018-05-06T22:44:53.899Z,78.70
2018-05-06T22:47:22.939Z,79.60
2018-05-06T22:49:51.563Z,80.20
2018-05-06T22:52:19.804Z,80.10
2018-05-06T22:57:17.531Z,79.50
2018-05-06T22:59:46.635Z,80.20
2018-05-06T23:02:15.566Z,80.40
2018-05-06T23:07:13.638Z,80.60
2018-05-06T23:09:41.958Z,81.50
2018-05-06T23:12:10.187Z,81.80
2018-05-06T23:14:38.402Z,81.40
2018-05-06T23:17:06.664Z,81.50
2018-05-06T23:19:35.377Z,82.00
2018-05-06T23:22:04.414Z,82.40
2018-05-06T23:24:32.671Z,82.50
2018-05-06T23:27:00.894Z,82.70
2018-05-06T23:29:29.155Z,83.40
2018-05-06T23:34:26.938Z,83.10
2018-05-06T23:36:55.171Z,85.10
2018-05-06T23:39:23.399Z,83.80
2018-05-06T23:41:51.659Z,83.80
2018-05-06T23:44:19.878Z,84.30
2018-05-06T23:46:48.518Z,84.50
2018-05-06T23:49:17.547Z,84.20
2018-05-06T23:51:45.772Z,84.40
2018-05-06T23:54:14.031Z,84.50
2018-05-06T23:56:42.455Z,85.00
2018-05-06T23:59:10.691Z,85.50
